sensor_id;sensor_type;location;lat;lon;timestamp;P1;durP1;ratioP1;P2;durP2;ratioP2
3261;SDS011;1643;47.746;9.000;2023-03-01T00:01:00;16.77;;;11.40;;
3261;SDS011;1643;47.746;9.000;2023-03-01T00:03:31;15.17;;;10.30;;
3261;SDS011;1643;47.746;9.000;2023-03-01T00:05:57;15.63;;;10.83;;
3261;SDS011;1643;47.746;9.000;2023-03-01T00:08:24;19.83;;;12.40;;
3261;SDS011;1643;47.746;9.000;2023-03-01T00:11:01;17.90;;;11.47;;
3261;SDS011;1643;47.746;9.000;2023-03-01T00:13:28;18.37;;;10.80;;
3261;SDS011;1643;47.746;9.000;2023-03-01T00:15:54;21.93;;;12.23;;
3261;SDS011;1643;47.746;9.000;2023-03-01T00:18:19;14.07;;;10.50;;
3261;SDS011;1643;47.746;9.000;2023-03-01T00:20:51;15.80;;;11.10;;
3261;SDS011;1643;47.746;9.000;2023-03-01T00:23:20;16.40;;;11.10;;
3261;SDS011;1643;47.746;9.000;2023-03-01T00:25:47;16.23;;;11.47;;
3261;SDS011;1643;47.746;9.000;2023-03-01T00:28:13;17.53;;;11.60;;
3261;SDS011;1643;47.746;9.000;2023-03-01T00:30:39;16.30;;;10.70;;
3261;SDS011;1643;47.746;9.000;2023-03-01T00:33:04;15.17;;;10.37;;
3261;SDS011;1643;47.746;9.000;2023-03-01T00:35:31;17.03;;;10.40;;
3261;SDS011;1643;47.746;9.000;2023-03-01T00:37:57;17.90;;;11.27;;
3261;SDS011;1643;47.746;9.000;2023-03-01T00:40:24;15.63;;;10.97;;
3261;SDS011;1643;47.746;9.000;2023-03-01T00:42:50;17.23;;;12.27;;
3261;SDS011;1643;47.746;9.000;2023-03-01T00:45:16;15.90;;;10.83;;
3261;SDS011;1643;47.746;9.000;2023-03-01T00:47:42;19.27;;;11.33;;
3261;SDS011;1643;47.746;9.000;2023-03-01T00:50:09;21.90;;;13.10;;
3261;SDS011;1643;47.746;9.000;2023-03-01T00:52:35;18.23;;;11.57;;
3261;SDS011;1643;47.746;9.000;2023-03-01T00:55:01;15.10;;;10.60;;
3261;SDS011;1643;47.746;9.000;2023-03-01T00:57:26;18.80;;;12.67;;
3261;SDS011;1643;47.746;9.000;2023-03-01T00:59:52;20.30;;;12.13;;
3261;SDS011;1643;47.746;9.000;2023-03-01T01:02:18;16.20;;;11.33;;
3261;SDS011;1643;47.746;9.000;2023-03-01T01:04:45;23.60;;;12.87;;
3261;SDS011;1643;47.746;9.000;2023-03-01T01:07:11;19.00;;;13.53;;
3261;SDS011;1643;47.746;9.000;2023-03-01T01:09:37;20.10;;;12.47;;
3261;SDS011;1643;47.746;9.000;2023-03-01T01:12:03;20.17;;;11.93;;
3261;SDS011;1643;47.746;9.000;2023-03-01T01:14:29;25.13;;;13.20;;
3261;SDS011;1643;47.746;9.000;2023-03-01T01:16:55;19.37;;;13.03;;
3261;SDS011;1643;47.746;9.000;2023-03-01T01:19:21;18.13;;;12.10;;
3261;SDS011;1643;47.746;9.000;2023-03-01T01:21:47;21.43;;;13.73;;
3261;SDS011;1643;47.746;9.000;2023-03-01T01:24:13;24.23;;;14.10;;
3261;SDS011;1643;47.746;9.000;2023-03-01T01:26:40;19.50;;;13.73;;
3261;SDS011;1643;47.746;9.000;2023-03-01T01:29:06;18.60;;;12.87;;
3261;SDS011;1643;47.746;9.000;2023-03-01T01:31:33;17.20;;;12.40;;
3261;SDS011;1643;47.746;9.000;2023-03-01T01:34:00;25.30;;;14.53;;
3261;SDS011;1643;47.746;9.000;2023-03-01T01:36:27;19.70;;;12.50;;
3261;SDS011;1643;47.746;9.000;2023-03-01T01:38:53;17.90;;;12.50;;
3261;SDS011;1643;47.746;9.000;2023-03-01T01:41:19;21.40;;;14.67;;
3261;SDS011;1643;47.746;9.000;2023-03-01T01:43:49;21.43;;;14.80;;
3261;SDS011;1643;47.746;9.000;2023-03-01T01:51:44;22.27;;;13.60;;
3261;SDS011;1643;47.746;9.000;2023-03-01T01:54:27;25.20;;;14.40;;
3261;SDS011;1643;47.746;9.000;2023-03-01T01:57:00;18.93;;;12.07;;
3261;SDS011;1643;47.746;9.000;2023-03-01T01:59:28;22.47;;;12.57;;
3261;SDS011;1643;47.746;9.000;2023-03-01T02:01:56;19.33;;;13.10;;
3261;SDS011;1643;47.746;9.000;2023-03-01T02:04:25;20.17;;;12.70;;
3261;SDS011;1643;47.746;9.000;2023-03-01T02:06:53;19.37;;;12.90;;
3261;SDS011;1643;47.746;9.000;2023-03-01T02:09:32;17.23;;;12.67;;
3261;SDS011;1643;47.746;9.000;2023-03-01T02:11:59;18.70;;;12.43;;
3261;SDS011;1643;47.746;9.000;2023-03-01T02:14:25;20.43;;;13.07;;
3261;SDS011;1643;47.746;9.000;2023-03-01T02:16:51;22.50;;;12.70;;
3261;SDS011;1643;47.746;9.000;2023-03-01T02:19:22;17.87;;;12.50;;
3261;SDS011;1643;47.746;9.000;2023-03-01T02:22:07;21.20;;;13.60;;
3261;SDS011;1643;47.746;9.000;2023-03-01T02:27:22;20.27;;;13.67;;
3261;SDS011;1643;47.746;9.000;2023-03-01T02:29:54;20.50;;;13.20;;
3261;SDS011;1643;47.746;9.000;2023-03-01T02:32:20;28.50;;;15.27;;
3261;SDS011;1643;47.746;9.000;2023-03-01T02:34:50;21.20;;;12.87;;
3261;SDS011;1643;47.746;9.000;2023-03-01T02:37:20;23.60;;;13.20;;
3261;SDS011;1643;47.746;9.000;2023-03-01T02:39:50;20.17;;;12.73;;
3261;SDS011;1643;47.746;9.000;2023-03-01T02:42:24;20.40;;;13.40;;
3261;SDS011;1643;47.746;9.000;2023-03-01T02:44:55;22.40;;;13.60;;
3261;SDS011;1643;47.746;9.000;2023-03-01T02:47:21;21.53;;;13.40;;
3261;SDS011;1643;47.746;9.000;2023-03-01T02:49:46;20.50;;;13.17;;
3261;SDS011;1643;47.746;9.000;2023-03-01T02:55:05;19.53;;;12.77;;
3261;SDS011;1643;47.746;9.000;2023-03-01T02:57:36;23.20;;;13.20;;
3261;SDS011;1643;47.746;9.000;2023-03-01T03:00:09;21.30;;;13.93;;
3261;SDS011;1643;47.746;9.000;2023-03-01T03:02:44;24.83;;;14.40;;
3261;SDS011;1643;47.746;9.000;2023-03-01T03:05:18;22.03;;;12.77;;
3261;SDS011;1643;47.746;9.000;2023-03-01T03:07:46;22.00;;;11.43;;
3261;SDS011;1643;47.746;9.000;2023-03-01T03:10:14;22.80;;;13.63;;
3261;SDS011;1643;47.746;9.000;2023-03-01T03:12:49;21.90;;;14.00;;
3261;SDS011;1643;47.746;9.000;2023-03-01T03:15:16;19.97;;;12.80;;
3261;SDS011;1643;47.746;9.000;2023-03-01T03:17:42;18.10;;;11.27;;
3261;SDS011;1643;47.746;9.000;2023-03-01T03:20:10;20.30;;;12.53;;
3261;SDS011;1643;47.746;9.000;2023-03-01T03:22:38;18.50;;;12.13;;
3261;SDS011;1643;47.746;9.000;2023-03-01T03:25:05;22.87;;;13.50;;
3261;SDS011;1643;47.746;9.000;2023-03-01T03:27:35;21.13;;;12.97;;
3261;SDS011;1643;47.746;9.000;2023-03-01T03:30:03;20.30;;;13.13;;
3261;SDS011;1643;47.746;9.000;2023-03-01T03:32:34;21.40;;;12.00;;
3261;SDS011;1643;47.746;9.000;2023-03-01T03:35:06;23.97;;;14.00;;
3261;SDS011;1643;47.746;9.000;2023-03-01T03:37:37;22.37;;;12.57;;
3261;SDS011;1643;47.746;9.000;2023-03-01T03:40:21;18.90;;;12.40;;
3261;SDS011;1643;47.746;9.000;2023-03-01T03:42:47;24.37;;;12.73;;
3261;SDS011;1643;47.746;9.000;2023-03-01T03:45:13;23.93;;;12.70;;
3261;SDS011;1643;47.746;9.000;2023-03-01T03:47:39;23.97;;;13.53;;
3261;SDS011;1643;47.746;9.000;2023-03-01T03:50:05;19.87;;;12.50;;
3261;SDS011;1643;47.746;9.000;2023-03-01T03:52:30;21.07;;;12.80;;
3261;SDS011;1643;47.746;9.000;2023-03-01T03:54:56;20.37;;;13.40;;
3261;SDS011;1643;47.746;9.000;2023-03-01T03:57:22;23.97;;;13.20;;
3261;SDS011;1643;47.746;9.000;2023-03-01T03:59:47;21.10;;;13.80;;
3261;SDS011;1643;47.746;9.000;2023-03-01T04:02:13;18.67;;;12.10;;
3261;SDS011;1643;47.746;9.000;2023-03-01T04:04:46;20.93;;;12.07;;
3261;SDS011;1643;47.746;9.000;2023-03-01T04:07:15;21.00;;;13.20;;
3261;SDS011;1643;47.746;9.000;2023-03-01T04:09:41;24.17;;;13.30;;
3261;SDS011;1643;47.746;9.000;2023-03-01T04:12:08;20.00;;;12.23;;
3261;SDS011;1643;47.746;9.000;2023-03-01T04:14:34;22.40;;;13.07;;
3261;SDS011;1643;47.746;9.000;2023-03-01T04:16:59;25.83;;;14.60;;
3261;SDS011;1643;47.746;9.000;2023-03-01T04:19:25;24.30;;;14.33;;
3261;SDS011;1643;47.746;9.000;2023-03-01T04:21:52;22.57;;;13.57;;
3261;SDS011;1643;47.746;9.000;2023-03-01T04:24:18;20.83;;;13.10;;
3261;SDS011;1643;47.746;9.000;2023-03-01T04:26:43;20.07;;;12.73;;
3261;SDS011;1643;47.746;9.000;2023-03-01T04:29:09;21.93;;;13.83;;
3261;SDS011;1643;47.746;9.000;2023-03-01T04:31:35;27.37;;;15.37;;
3261;SDS011;1643;47.746;9.000;2023-03-01T04:34:01;23.47;;;14.40;;
3261;SDS011;1643;47.746;9.000;2023-03-01T04:36:27;23.03;;;12.97;;
3261;SDS011;1643;47.746;9.000;2023-03-01T04:38:54;22.10;;;14.60;;
3261;SDS011;1643;47.746;9.000;2023-03-01T04:41:21;23.53;;;13.67;;
3261;SDS011;1643;47.746;9.000;2023-03-01T04:43:48;18.70;;;13.33;;
3261;SDS011;1643;47.746;9.000;2023-03-01T04:46:16;15.90;;;10.97;;
3261;SDS011;1643;47.746;9.000;2023-03-01T04:48:44;24.83;;;13.90;;
3261;SDS011;1643;47.746;9.000;2023-03-01T04:51:10;20.23;;;13.17;;
3261;SDS011;1643;47.746;9.000;2023-03-01T04:53:39;20.77;;;14.50;;
3261;SDS011;1643;47.746;9.000;2023-03-01T04:56:06;27.27;;;14.77;;
3261;SDS011;1643;47.746;9.000;2023-03-01T04:58:31;19.87;;;13.07;;
3261;SDS011;1643;47.746;9.000;2023-03-01T05:00:57;21.13;;;12.73;;
3261;SDS011;1643;47.746;9.000;2023-03-01T05:03:23;22.63;;;13.60;;
3261;SDS011;1643;47.746;9.000;2023-03-01T05:05:50;22.83;;;13.77;;
3261;SDS011;1643;47.746;9.000;2023-03-01T05:08:16;24.00;;;14.60;;
3261;SDS011;1643;47.746;9.000;2023-03-01T05:10:43;24.50;;;14.67;;
3261;SDS011;1643;47.746;9.000;2023-03-01T05:13:11;23.80;;;14.43;;
3261;SDS011;1643;47.746;9.000;2023-03-01T05:15:38;20.23;;;12.40;;
3261;SDS011;1643;47.746;9.000;2023-03-01T05:18:04;22.80;;;14.23;;
3261;SDS011;1643;47.746;9.000;2023-03-01T05:20:36;26.10;;;15.13;;
3261;SDS011;1643;47.746;9.000;2023-03-01T05:23:02;29.33;;;18.00;;
3261;SDS011;1643;47.746;9.000;2023-03-01T05:25:30;24.20;;;15.90;;
3261;SDS011;1643;47.746;9.000;2023-03-01T05:28:00;22.80;;;14.70;;
3261;SDS011;1643;47.746;9.000;2023-03-01T05:30:30;24.23;;;15.27;;
3261;SDS011;1643;47.746;9.000;2023-03-01T05:32:59;21.33;;;13.20;;
3261;SDS011;1643;47.746;9.000;2023-03-01T05:35:25;25.17;;;15.70;;
3261;SDS011;1643;47.746;9.000;2023-03-01T05:37:51;23.80;;;14.50;;
3261;SDS011;1643;47.746;9.000;2023-03-01T05:40:18;25.80;;;14.63;;
3261;SDS011;1643;47.746;9.000;2023-03-01T05:42:46;25.73;;;17.03;;
3261;SDS011;1643;47.746;9.000;2023-03-01T05:45:14;30.53;;;19.10;;
3261;SDS011;1643;47.746;9.000;2023-03-01T05:47:41;30.70;;;16.30;;
3261;SDS011;1643;47.746;9.000;2023-03-01T05:50:31;26.30;;;15.90;;
3261;SDS011;1643;47.746;9.000;2023-03-01T05:52:59;29.87;;;15.70;;
3261;SDS011;1643;47.746;9.000;2023-03-01T05:55:27;27.53;;;14.43;;
3261;SDS011;1643;47.746;9.000;2023-03-01T05:57:53;23.40;;;15.07;;
3261;SDS011;1643;47.746;9.000;2023-03-01T06:00:20;21.30;;;13.00;;
3261;SDS011;1643;47.746;9.000;2023-03-01T06:02:49;22.00;;;15.13;;
3261;SDS011;1643;47.746;9.000;2023-03-01T06:05:17;22.70;;;13.90;;
3261;SDS011;1643;47.746;9.000;2023-03-01T06:07:43;21.53;;;13.23;;
3261;SDS011;1643;47.746;9.000;2023-03-01T06:10:09;19.53;;;13.70;;
3261;SDS011;1643;47.746;9.000;2023-03-01T06:12:37;21.53;;;14.00;;
3261;SDS011;1643;47.746;9.000;2023-03-01T06:15:04;25.73;;;15.17;;
3261;SDS011;1643;47.746;9.000;2023-03-01T06:17:32;22.23;;;13.17;;
3261;SDS011;1643;47.746;9.000;2023-03-01T06:20:06;20.73;;;13.30;;
3261;SDS011;1643;47.746;9.000;2023-03-01T06:22:33;19.47;;;12.73;;
3261;SDS011;1643;47.746;9.000;2023-03-01T06:24:59;22.30;;;15.37;;
3261;SDS011;1643;47.746;9.000;2023-03-01T06:27:25;24.37;;;13.37;;
3261;SDS011;1643;47.746;9.000;2023-03-01T06:29:50;23.50;;;14.10;;
3261;SDS011;1643;47.746;9.000;2023-03-01T06:32:16;25.57;;;14.50;;
3261;SDS011;1643;47.746;9.000;2023-03-01T06:34:41;28.93;;;16.03;;
3261;SDS011;1643;47.746;9.000;2023-03-01T06:37:07;25.60;;;15.23;;
3261;SDS011;1643;47.746;9.000;2023-03-01T06:39:33;33.00;;;17.13;;
3261;SDS011;1643;47.746;9.000;2023-03-01T06:41:59;27.20;;;15.57;;
3261;SDS011;1643;47.746;9.000;2023-03-01T06:44:25;22.73;;;14.80;;
3261;SDS011;1643;47.746;9.000;2023-03-01T06:46:51;21.60;;;14.17;;
3261;SDS011;1643;47.746;9.000;2023-03-01T06:49:16;20.87;;;13.20;;
3261;SDS011;1643;47.746;9.000;2023-03-01T06:51:43;20.13;;;13.40;;
3261;SDS011;1643;47.746;9.000;2023-03-01T06:54:09;20.90;;;13.37;;
3261;SDS011;1643;47.746;9.000;2023-03-01T06:56:35;27.73;;;14.37;;
3261;SDS011;1643;47.746;9.000;2023-03-01T06:59:01;21.13;;;13.17;;
3261;SDS011;1643;47.746;9.000;2023-03-01T07:01:27;26.30;;;14.60;;
3261;SDS011;1643;47.746;9.000;2023-03-01T07:03:54;21.27;;;13.33;;
3261;SDS011;1643;47.746;9.000;2023-03-01T07:06:19;26.63;;;15.80;;
3261;SDS011;1643;47.746;9.000;2023-03-01T07:08:46;21.77;;;13.87;;
3261;SDS011;1643;47.746;9.000;2023-03-01T07:11:11;19.33;;;13.70;;
3261;SDS011;1643;47.746;9.000;2023-03-01T07:13:37;19.80;;;12.90;;
3261;SDS011;1643;47.746;9.000;2023-03-01T07:16:03;23.10;;;13.33;;
3261;SDS011;1643;47.746;9.000;2023-03-01T07:18:29;25.27;;;15.03;;
3261;SDS011;1643;47.746;9.000;2023-03-01T07:20:54;24.93;;;16.43;;
3261;SDS011;1643;47.746;9.000;2023-03-01T07:23:20;20.20;;;11.67;;
3261;SDS011;1643;47.746;9.000;2023-03-01T07:25:51;24.63;;;14.07;;
3261;SDS011;1643;47.746;9.000;2023-03-01T07:28:20;36.33;;;19.07;;
3261;SDS011;1643;47.746;9.000;2023-03-01T07:30:48;20.77;;;13.13;;
3261;SDS011;1643;47.746;9.000;2023-03-01T07:33:13;29.27;;;16.50;;
3261;SDS011;1643;47.746;9.000;2023-03-01T07:35:39;22.90;;;14.50;;
3261;SDS011;1643;47.746;9.000;2023-03-01T07:38:05;39.47;;;24.17;;
3261;SDS011;1643;47.746;9.000;2023-03-01T07:40:30;27.30;;;16.07;;
3261;SDS011;1643;47.746;9.000;2023-03-01T07:42:57;24.00;;;15.37;;
3261;SDS011;1643;47.746;9.000;2023-03-01T07:45:23;29.10;;;15.47;;
3261;SDS011;1643;47.746;9.000;2023-03-01T07:47:52;24.90;;;14.10;;
3261;SDS011;1643;47.746;9.000;2023-03-01T07:50:19;23.10;;;15.10;;
3261;SDS011;1643;47.746;9.000;2023-03-01T07:52:46;27.07;;;16.07;;
3261;SDS011;1643;47.746;9.000;2023-03-01T07:55:12;22.00;;;14.63;;
3261;SDS011;1643;47.746;9.000;2023-03-01T07:57:38;19.83;;;13.20;;
3261;SDS011;1643;47.746;9.000;2023-03-01T08:00:04;20.57;;;12.00;;
3261;SDS011;1643;47.746;9.000;2023-03-01T08:02:31;22.00;;;13.83;;
3261;SDS011;1643;47.746;9.000;2023-03-01T08:04:56;19.67;;;12.90;;
3261;SDS011;1643;47.746;9.000;2023-03-01T08:07:22;20.90;;;13.23;;
3261;SDS011;1643;47.746;9.000;2023-03-01T08:09:48;18.47;;;12.87;;
3261;SDS011;1643;47.746;9.000;2023-03-01T08:12:13;18.80;;;13.47;;
3261;SDS011;1643;47.746;9.000;2023-03-01T08:14:41;18.47;;;12.63;;
3261;SDS011;1643;47.746;9.000;2023-03-01T08:17:06;23.53;;;14.83;;
3261;SDS011;1643;47.746;9.000;2023-03-01T08:19:32;23.67;;;14.00;;
3261;SDS011;1643;47.746;9.000;2023-03-01T08:21:59;21.73;;;12.93;;
3261;SDS011;1643;47.746;9.000;2023-03-01T08:24:26;17.67;;;11.90;;
3261;SDS011;1643;47.746;9.000;2023-03-01T08:26:52;20.40;;;12.90;;
3261;SDS011;1643;47.746;9.000;2023-03-01T08:29:18;21.87;;;13.77;;
3261;SDS011;1643;47.746;9.000;2023-03-01T08:31:44;24.30;;;14.50;;
3261;SDS011;1643;47.746;9.000;2023-03-01T08:34:11;24.40;;;15.03;;
3261;SDS011;1643;47.746;9.000;2023-03-01T08:36:39;24.23;;;13.63;;
3261;SDS011;1643;47.746;9.000;2023-03-01T08:39:06;24.13;;;15.10;;
3261;SDS011;1643;47.746;9.000;2023-03-01T08:41:33;30.23;;;15.03;;
3261;SDS011;1643;47.746;9.000;2023-03-01T08:43:59;24.37;;;15.37;;
3261;SDS011;1643;47.746;9.000;2023-03-01T08:46:31;22.50;;;14.33;;
3261;SDS011;1643;47.746;9.000;2023-03-01T08:48:58;21.93;;;15.00;;
3261;SDS011;1643;47.746;9.000;2023-03-01T08:51:25;24.13;;;14.40;;
3261;SDS011;1643;47.746;9.000;2023-03-01T08:53:51;24.47;;;13.67;;
3261;SDS011;1643;47.746;9.000;2023-03-01T08:56:17;19.53;;;12.80;;
3261;SDS011;1643;47.746;9.000;2023-03-01T08:58:46;20.03;;;13.23;;
3261;SDS011;1643;47.746;9.000;2023-03-01T09:01:16;20.60;;;12.33;;
3261;SDS011;1643;47.746;9.000;2023-03-01T09:03:43;23.23;;;13.33;;
3261;SDS011;1643;47.746;9.000;2023-03-01T09:06:10;24.27;;;15.27;;
3261;SDS011;1643;47.746;9.000;2023-03-01T09:08:37;22.07;;;13.10;;
3261;SDS011;1643;47.746;9.000;2023-03-01T09:11:07;23.27;;;13.43;;
3261;SDS011;1643;47.746;9.000;2023-03-01T09:13:35;21.23;;;12.80;;
3261;SDS011;1643;47.746;9.000;2023-03-01T09:16:01;20.67;;;12.90;;
3261;SDS011;1643;47.746;9.000;2023-03-01T09:18:29;24.13;;;13.50;;
3261;SDS011;1643;47.746;9.000;2023-03-01T09:21:08;20.23;;;13.00;;
3261;SDS011;1643;47.746;9.000;2023-03-01T09:23:45;22.67;;;12.43;;
3261;SDS011;1643;47.746;9.000;2023-03-01T09:26:16;20.43;;;13.20;;
3261;SDS011;1643;47.746;9.000;2023-03-01T09:28:47;18.33;;;12.30;;
3261;SDS011;1643;47.746;9.000;2023-03-01T09:31:13;22.17;;;12.90;;
3261;SDS011;1643;47.746;9.000;2023-03-01T09:33:41;21.43;;;13.40;;
3261;SDS011;1643;47.746;9.000;2023-03-01T09:36:11;20.67;;;14.10;;
3261;SDS011;1643;47.746;9.000;2023-03-01T09:38:38;18.80;;;11.60;;
3261;SDS011;1643;47.746;9.000;2023-03-01T09:41:09;20.13;;;13.80;;
3261;SDS011;1643;47.746;9.000;2023-03-01T09:44:18;22.60;;;14.73;;
3261;SDS011;1643;47.746;9.000;2023-03-01T09:46:45;30.47;;;14.83;;
3261;SDS011;1643;47.746;9.000;2023-03-01T09:49:45;32.23;;;16.90;;
3261;SDS011;1643;47.746;9.000;2023-03-01T09:52:12;33.00;;;22.27;;
3261;SDS011;1643;47.746;9.000;2023-03-01T09:54:49;21.73;;;13.87;;
3261;SDS011;1643;47.746;9.000;2023-03-01T09:57:20;20.33;;;13.00;;
3261;SDS011;1643;47.746;9.000;2023-03-01T10:02:44;18.80;;;12.10;;
3261;SDS011;1643;47.746;9.000;2023-03-01T10:05:26;17.60;;;12.43;;
3261;SDS011;1643;47.746;9.000;2023-03-01T10:08:06;20.40;;;13.10;;
3261;SDS011;1643;47.746;9.000;2023-03-01T10:10:37;20.03;;;12.07;;
3261;SDS011;1643;47.746;9.000;2023-03-01T10:13:14;16.93;;;11.13;;
3261;SDS011;1643;47.746;9.000;2023-03-01T10:16:06;21.53;;;12.10;;
3261;SDS011;1643;47.746;9.000;2023-03-01T10:18:46;18.20;;;11.80;;
3261;SDS011;1643;47.746;9.000;2023-03-01T10:21:18;19.53;;;12.53;;
3261;SDS011;1643;47.746;9.000;2023-03-01T10:23:45;21.97;;;13.83;;
3261;SDS011;1643;47.746;9.000;2023-03-01T10:26:23;20.70;;;13.17;;
3261;SDS011;1643;47.746;9.000;2023-03-01T10:29:11;19.40;;;12.50;;
3261;SDS011;1643;47.746;9.000;2023-03-01T10:31:39;20.00;;;12.63;;
3261;SDS011;1643;47.746;9.000;2023-03-01T10:34:18;19.03;;;12.10;;
3261;SDS011;1643;47.746;9.000;2023-03-01T10:36:53;20.23;;;12.83;;
3261;SDS011;1643;47.746;9.000;2023-03-01T10:42:34;19.40;;;12.67;;
3261;SDS011;1643;47.746;9.000;2023-03-01T10:45:19;19.83;;;11.70;;
3261;SDS011;1643;47.746;9.000;2023-03-01T10:50:33;24.27;;;14.00;;
3261;SDS011;1643;47.746;9.000;2023-03-01T10:53:02;26.27;;;16.30;;
3261;SDS011;1643;47.746;9.000;2023-03-01T11:03:26;24.13;;;15.43;;
3261;SDS011;1643;47.746;9.000;2023-03-01T11:08:38;27.73;;;14.37;;
3261;SDS011;1643;47.746;9.000;2023-03-01T11:13:38;23.13;;;14.30;;
3261;SDS011;1643;47.746;9.000;2023-03-01T11:16:24;24.47;;;15.87;;
3261;SDS011;1643;47.746;9.000;2023-03-01T11:18:56;23.90;;;14.90;;
3261;SDS011;1643;47.746;9.000;2023-03-01T11:22:01;34.73;;;19.20;;
3261;SDS011;1643;47.746;9.000;2023-03-01T11:24:38;27.33;;;15.80;;
3261;SDS011;1643;47.746;9.000;2023-03-01T11:27:34;32.20;;;15.07;;
3261;SDS011;1643;47.746;9.000;2023-03-01T11:30:00;21.33;;;14.20;;
3261;SDS011;1643;47.746;9.000;2023-03-01T11:32:40;21.93;;;13.73;;
3261;SDS011;1643;47.746;9.000;2023-03-01T11:35:14;20.10;;;11.90;;
3261;SDS011;1643;47.746;9.000;2023-03-01T11:43:15;18.63;;;12.20;;
3261;SDS011;1643;47.746;9.000;2023-03-01T11:51:05;22.97;;;13.33;;
3261;SDS011;1643;47.746;9.000;2023-03-01T11:56:28;23.40;;;13.43;;
3261;SDS011;1643;47.746;9.000;2023-03-01T11:59:06;24.83;;;14.63;;
3261;SDS011;1643;47.746;9.000;2023-03-01T12:01:45;23.30;;;13.80;;
3261;SDS011;1643;47.746;9.000;2023-03-01T12:09:41;36.70;;;19.67;;
3261;SDS011;1643;47.746;9.000;2023-03-01T12:12:30;27.47;;;16.63;;
3261;SDS011;1643;47.746;9.000;2023-03-01T12:25:28;20.03;;;13.30;;
3261;SDS011;1643;47.746;9.000;2023-03-01T12:28:27;22.43;;;14.47;;
3261;SDS011;1643;47.746;9.000;2023-03-01T12:31:11;23.87;;;15.60;;
3261;SDS011;1643;47.746;9.000;2023-03-01T12:36:53;21.83;;;14.23;;
3261;SDS011;1643;47.746;9.000;2023-03-01T12:39:34;19.67;;;12.60;;
3261;SDS011;1643;47.746;9.000;2023-03-01T12:45:20;19.60;;;12.77;;
3261;SDS011;1643;47.746;9.000;2023-03-01T12:48:18;23.27;;;14.03;;
3261;SDS011;1643;47.746;9.000;2023-03-01T12:51:03;23.30;;;14.60;;
3261;SDS011;1643;47.746;9.000;2023-03-01T12:53:37;20.63;;;13.83;;
3261;SDS011;1643;47.746;9.000;2023-03-01T12:56:15;20.20;;;12.83;;
3261;SDS011;1643;47.746;9.000;2023-03-01T12:58:51;21.30;;;12.90;;
3261;SDS011;1643;47.746;9.000;2023-03-01T13:01:42;20.93;;;12.87;;
3261;SDS011;1643;47.746;9.000;2023-03-01T13:04:20;20.03;;;12.50;;
3261;SDS011;1643;47.746;9.000;2023-03-01T13:15:24;20.00;;;12.77;;
3261;SDS011;1643;47.746;9.000;2023-03-01T13:17:55;21.50;;;13.70;;
3261;SDS011;1643;47.746;9.000;2023-03-01T13:20:27;19.00;;;12.70;;
3261;SDS011;1643;47.746;9.000;2023-03-01T13:23:01;20.80;;;14.23;;
3261;SDS011;1643;47.746;9.000;2023-03-01T13:25:27;19.33;;;12.57;;
3261;SDS011;1643;47.746;9.000;2023-03-01T13:27:52;18.83;;;12.07;;
3261;SDS011;1643;47.746;9.000;2023-03-01T13:30:56;20.23;;;12.27;;
3261;SDS011;1643;47.746;9.000;2023-03-01T13:35:54;20.57;;;13.13;;
3261;SDS011;1643;47.746;9.000;2023-03-01T13:41:13;22.00;;;12.87;;
3261;SDS011;1643;47.746;9.000;2023-03-01T13:44:02;20.80;;;13.00;;
3261;SDS011;1643;47.746;9.000;2023-03-01T13:46:40;19.43;;;13.50;;
3261;SDS011;1643;47.746;9.000;2023-03-01T13:49:14;22.17;;;12.67;;
3261;SDS011;1643;47.746;9.000;2023-03-01T13:51:45;23.90;;;15.27;;
3261;SDS011;1643;47.746;9.000;2023-03-01T13:54:12;23.67;;;14.07;;
3261;SDS011;1643;47.746;9.000;2023-03-01T13:56:40;21.10;;;13.53;;
3261;SDS011;1643;47.746;9.000;2023-03-01T13:59:27;17.33;;;11.87;;
3261;SDS011;1643;47.746;9.000;2023-03-01T14:01:59;21.60;;;12.00;;
3261;SDS011;1643;47.746;9.000;2023-03-01T14:04:29;18.83;;;11.97;;
3261;SDS011;1643;47.746;9.000;2023-03-01T14:07:09;18.87;;;12.43;;
3261;SDS011;1643;47.746;9.000;2023-03-01T14:09:39;20.23;;;13.47;;
3261;SDS011;1643;47.746;9.000;2023-03-01T14:12:22;23.77;;;13.10;;
3261;SDS011;1643;47.746;9.000;2023-03-01T14:15:31;22.00;;;13.40;;
3261;SDS011;1643;47.746;9.000;2023-03-01T14:20:53;20.47;;;13.00;;
3261;SDS011;1643;47.746;9.000;2023-03-01T14:23:20;22.53;;;14.17;;
3261;SDS011;1643;47.746;9.000;2023-03-01T14:25:54;27.60;;;16.27;;
3261;SDS011;1643;47.746;9.000;2023-03-01T14:28:25;23.80;;;14.43;;
3261;SDS011;1643;47.746;9.000;2023-03-01T14:30:53;22.80;;;15.30;;
3261;SDS011;1643;47.746;9.000;2023-03-01T14:33:21;23.40;;;13.63;;
3261;SDS011;1643;47.746;9.000;2023-03-01T14:38:20;22.93;;;14.00;;
3261;SDS011;1643;47.746;9.000;2023-03-01T14:40:48;25.40;;;15.00;;
3261;SDS011;1643;47.746;9.000;2023-03-01T14:43:19;29.37;;;16.00;;
3261;SDS011;1643;47.746;9.000;2023-03-01T14:45:48;23.27;;;13.80;;
3261;SDS011;1643;47.746;9.000;2023-03-01T14:48:15;31.13;;;18.77;;
3261;SDS011;1643;47.746;9.000;2023-03-01T14:50:42;30.57;;;15.50;;
3261;SDS011;1643;47.746;9.000;2023-03-01T14:53:20;30.10;;;17.60;;
3261;SDS011;1643;47.746;9.000;2023-03-01T14:55:53;29.57;;;16.77;;
3261;SDS011;1643;47.746;9.000;2023-03-01T14:58:22;22.97;;;14.70;;
3261;SDS011;1643;47.746;9.000;2023-03-01T15:00:56;21.83;;;13.73;;
3261;SDS011;1643;47.746;9.000;2023-03-01T15:03:25;22.43;;;12.27;;
3261;SDS011;1643;47.746;9.000;2023-03-01T15:06:05;23.20;;;14.30;;
3261;SDS011;1643;47.746;9.000;2023-03-01T15:08:32;19.50;;;12.70;;
3261;SDS011;1643;47.746;9.000;2023-03-01T15:13:31;21.47;;;13.40;;
3261;SDS011;1643;47.746;9.000;2023-03-01T15:16:06;24.60;;;15.23;;
3261;SDS011;1643;47.746;9.000;2023-03-01T15:18:36;21.27;;;12.90;;
3261;SDS011;1643;47.746;9.000;2023-03-01T15:21:20;22.90;;;15.47;;
3261;SDS011;1643;47.746;9.000;2023-03-01T15:23:54;30.03;;;15.60;;
3261;SDS011;1643;47.746;9.000;2023-03-01T15:26:40;24.47;;;15.27;;
3261;SDS011;1643;47.746;9.000;2023-03-01T15:29:16;27.57;;;17.47;;
3261;SDS011;1643;47.746;9.000;2023-03-01T15:31:50;24.23;;;15.33;;
3261;SDS011;1643;47.746;9.000;2023-03-01T15:36:51;21.73;;;14.07;;
3261;SDS011;1643;47.746;9.000;2023-03-01T15:39:23;22.10;;;14.23;;
3261;SDS011;1643;47.746;9.000;2023-03-01T15:42:04;27.10;;;14.37;;
3261;SDS011;1643;47.746;9.000;2023-03-01T15:44:31;23.27;;;14.50;;
3261;SDS011;1643;47.746;9.000;2023-03-01T15:46:59;26.47;;;15.30;;
3261;SDS011;1643;47.746;9.000;2023-03-01T15:49:43;26.27;;;15.77;;
3261;SDS011;1643;47.746;9.000;2023-03-01T15:52:22;58.80;;;26.53;;
3261;SDS011;1643;47.746;9.000;2023-03-01T15:54:58;52.40;;;25.10;;
3261;SDS011;1643;47.746;9.000;2023-03-01T15:57:26;33.03;;;19.40;;
3261;SDS011;1643;47.746;9.000;2023-03-01T15:59:52;33.67;;;18.67;;
3261;SDS011;1643;47.746;9.000;2023-03-01T16:02:17;31.77;;;18.80;;
3261;SDS011;1643;47.746;9.000;2023-03-01T16:04:45;29.90;;;16.70;;
3261;SDS011;1643;47.746;9.000;2023-03-01T16:07:11;24.60;;;14.97;;
3261;SDS011;1643;47.746;9.000;2023-03-01T16:09:37;27.10;;;16.40;;
3261;SDS011;1643;47.746;9.000;2023-03-01T16:12:03;30.17;;;16.23;;
3261;SDS011;1643;47.746;9.000;2023-03-01T16:14:28;25.63;;;16.00;;
3261;SDS011;1643;47.746;9.000;2023-03-01T16:16:54;29.87;;;18.10;;
3261;SDS011;1643;47.746;9.000;2023-03-01T16:19:20;20.90;;;14.03;;
3261;SDS011;1643;47.746;9.000;2023-03-01T16:21:45;27.90;;;16.10;;
3261;SDS011;1643;47.746;9.000;2023-03-01T16:24:13;26.03;;;17.37;;
3261;SDS011;1643;47.746;9.000;2023-03-01T16:26:39;34.67;;;18.00;;
3261;SDS011;1643;47.746;9.000;2023-03-01T16:29:05;26.87;;;16.60;;
3261;SDS011;1643;47.746;9.000;2023-03-01T16:31:30;42.93;;;21.80;;
3261;SDS011;1643;47.746;9.000;2023-03-01T16:33:57;32.17;;;19.43;;
3261;SDS011;1643;47.746;9.000;2023-03-01T16:36:24;30.90;;;17.90;;
3261;SDS011;1643;47.746;9.000;2023-03-01T16:38:53;32.33;;;21.20;;